Great Falls International Airport
KGTF : now visible

Airfield :











YOU CAN JOIN US ON...

 
LOGIN :

Register | Disclaimer

   EN    FR    IT 

 









Legend :    VFR   Marginal VFR   IFR   Intensive IFR   Very Intensive IFR
Visi :
Ceiling :
>= 8 km
>= 3000ft
5 to 8 km
1000 to 3000 ft
1500m to 5 km
500 to 1000 ft
800 to 1500m
200 to 500 ft
< 800m
< 200 ft
Symbols :   Thunderstorms  Fog  Heavy snow  Heavy precipitations  Wind > 20 kt







- Airport Elevation : 3680 ft
- IATA code : GTF


KGTF - Great Falls International

CURRENT METAR :
  • 212121Z 19007KT 160V230 10SM -RA FEW046 SCT060 OVC075 13/08 A2995 RMK AO2 WSHFT 2101 P0000 T01330083 $

EXPIRED METARs :
  • 212053Z 25009KT 10SM -RA BKN046 BKN060 16/05 A2996 RMK AO2 RAB51 SLP140 P0000 60000 T01560050 56017 $
  • 211953Z 24008KT 10SM FEW037 17/06 A2998 RMK AO2 SLP142 T01670056 $
  • 211853Z 23009G17KT 10SM CLR 16/06 A3000 RMK AO2 SLP149 T01560056 $

TAF KGTF
Valid from the 21 at 18:00 until the 22 at 18:00 UTC


211720Z 2118/2218 21011KT P6SM FEW035 SCT050
TEMPO 2118/2119 BKN050
FM212100 24011KT P6SM SCT040 SCT200
TEMPO 2121/2124 BKN040
FM220200 22009KT P6SM SCT050 BKN120
FM221000 21009KT P6SM SKC
No reported NOTAMs for that airfield.



MET'MAP, your aeronautical weather chart ! - Copyright ORBIFLY December 2007 - Disclaimer

ORBIFLY MET'MAP TEAM :

Programming & Development : Alexandra Zaïnal
Concept & Development : Baudouin d'Aumeries
Co-Development & Prog : Marc-Olivier Méhu
Technical & hardware support : Manuel Goepfert

Contact : metmap@orbifly.com




SOURCES & CREDITS :

   NOAA       Earth
Advisory